createdAt,value
2022-08-21T00:00:28.578Z,22.10
2022-08-21T00:03:04.152Z,22.94
2022-08-21T00:05:33.273Z,22.10
2022-08-21T00:08:01.053Z,22.30
2022-08-21T00:10:28.807Z,22.93
2022-08-21T00:12:56.580Z,22.71
2022-08-21T00:15:27.601Z,22.56
2022-08-21T00:17:56.199Z,23.17
2022-08-21T00:20:24.564Z,22.65
2022-08-21T00:22:52.670Z,22.87
2022-08-21T00:25:24.400Z,22.51
2022-08-21T00:27:55.054Z,22.33
2022-08-21T00:30:24.065Z,22.16
2022-08-21T00:32:53.317Z,21.85
2022-08-21T00:35:26.133Z,21.54
2022-08-21T00:37:53.896Z,22.04
2022-08-21T00:40:26.214Z,21.92
2022-08-21T00:42:54.154Z,21.59
2022-08-21T00:45:25.002Z,22.31
2022-08-21T00:47:54.949Z,22.41
2022-08-21T00:50:24.241Z,22.76
2022-08-21T00:52:52.902Z,22.89
2022-08-21T00:55:22.695Z,22.72
2022-08-21T00:57:53.804Z,22.57
2022-08-21T01:00:32.839Z,22.16
2022-08-21T01:03:07.326Z,22.52
2022-08-21T01:05:36.842Z,22.90
2022-08-21T01:08:06.004Z,22.85
2022-08-21T01:10:34.620Z,22.79
2022-08-21T01:13:02.367Z,22.73
2022-08-21T01:15:33.563Z,23.10
2022-08-21T01:18:01.457Z,23.10
2022-08-21T01:20:32.750Z,23.20
2022-08-21T01:23:05.548Z,23.14
2022-08-21T01:25:35.185Z,22.93
2022-08-21T01:28:08.221Z,23.48
2022-08-21T01:30:37.226Z,23.09
2022-08-21T01:33:05.811Z,23.32
2022-08-21T01:35:34.745Z,23.48
2022-08-21T01:38:02.565Z,23.79
2022-08-21T01:40:30.782Z,23.21
2022-08-21T01:42:58.471Z,22.99
2022-08-21T01:45:26.346Z,23.07
2022-08-21T01:47:54.223Z,22.89
2022-08-21T01:50:22.354Z,22.51
2022-08-21T01:52:50.800Z,22.80
2022-08-21T01:55:21.000Z,22.80
2022-08-21T01:57:49.401Z,23.16
2022-08-21T02:00:20.197Z,22.84
2022-08-21T02:02:47.957Z,23.28
2022-08-21T02:05:16.414Z,22.82
2022-08-21T02:07:50.184Z,22.40
2022-08-21T02:10:23.013Z,21.86
2022-08-21T02:12:50.794Z,22.27
2022-08-21T02:15:19.758Z,22.49
2022-08-21T02:17:50.304Z,22.32
2022-08-21T02:20:26.177Z,22.08
2022-08-21T02:22:54.535Z,22.59
2022-08-21T02:25:23.903Z,22.69
2022-08-21T02:27:52.043Z,22.35
2022-08-21T02:30:26.978Z,22.40
2022-08-21T02:32:54.768Z,21.81
2022-08-21T02:35:22.337Z,22.70
2022-08-21T02:37:57.719Z,22.31
2022-08-21T02:40:29.012Z,21.61
2022-08-21T02:42:56.700Z,21.95
2022-08-21T02:45:24.523Z,22.30
2022-08-21T02:47:54.852Z,22.41
2022-08-21T02:50:26.691Z,22.11
2022-08-21T02:52:55.637Z,22.06
2022-08-21T02:55:27.238Z,22.44
2022-08-21T02:57:56.230Z,21.67
2022-08-21T03:00:26.291Z,21.72
2022-08-21T03:02:54.517Z,21.10
2022-08-21T03:05:22.485Z,21.40
2022-08-21T03:07:50.182Z,21.43
2022-08-21T03:10:17.758Z,22.09
2022-08-21T03:12:45.482Z,22.10
2022-08-21T03:15:15.571Z,22.04
2022-08-21T03:17:43.010Z,21.29
2022-08-21T03:20:11.603Z,21.25
2022-08-21T03:22:39.601Z,21.71
2022-08-21T03:25:07.871Z,21.36
2022-08-21T03:27:38.768Z,21.26
2022-08-21T03:30:09.483Z,21.43
2022-08-21T03:32:37.291Z,21.60
2022-08-21T03:35:05.912Z,21.53
2022-08-21T03:37:33.360Z,21.90
2022-08-21T03:40:01.204Z,21.53
2022-08-21T03:42:28.986Z,21.14
2022-08-21T03:44:56.508Z,21.82
2022-08-21T03:47:24.046Z,21.76
2022-08-21T03:49:51.774Z,21.83
2022-08-21T03:52:19.626Z,21.18
2022-08-21T03:54:47.356Z,21.86
2022-08-21T03:57:15.236Z,21.95
2022-08-21T03:59:43.863Z,22.50
2022-08-21T04:02:12.049Z,22.43
2022-08-21T04:04:39.872Z,21.54
2022-08-21T04:07:07.363Z,22.50
2022-08-21T04:09:34.821Z,22.39
2022-08-21T04:12:03.348Z,22.03
2022-08-21T04:14:31.241Z,22.45
2022-08-21T04:16:58.730Z,21.95
2022-08-21T04:19:26.498Z,22.21
2022-08-21T04:21:54.140Z,21.90
2022-08-21T04:24:22.635Z,22.62
2022-08-21T04:26:50.937Z,21.83
2022-08-21T04:29:18.433Z,21.73
2022-08-21T04:31:45.977Z,22.09
2022-08-21T04:34:14.544Z,21.71
2022-08-21T04:36:42.360Z,22.08
2022-08-21T04:39:10.197Z,21.94
2022-08-21T04:41:38.632Z,22.30
2022-08-21T04:44:06.263Z,22.12
2022-08-21T04:46:33.913Z,22.48
2022-08-21T04:49:01.699Z,22.12
2022-08-21T04:51:36.062Z,21.82
2022-08-21T04:54:10.713Z,21.93
2022-08-21T04:56:42.472Z,21.95
2022-08-21T04:59:20.466Z,21.89
2022-08-21T05:01:48.222Z,21.77
2022-08-21T05:04:18.020Z,21.67
2022-08-21T05:06:48.080Z,21.46
2022-08-21T05:09:17.952Z,22.18
2022-08-21T05:11:45.911Z,22.43
2022-08-21T05:14:13.697Z,21.53
2022-08-21T05:16:42.829Z,21.74
2022-08-21T05:19:10.885Z,21.85
2022-08-21T05:21:42.433Z,21.87
2022-08-21T05:24:10.504Z,22.43
2022-08-21T05:26:46.408Z,21.99
2022-08-21T05:29:16.589Z,22.54
2022-08-21T05:31:44.810Z,22.49
2022-08-21T05:34:16.207Z,22.35
2022-08-21T05:36:45.481Z,21.73
2022-08-21T05:39:13.201Z,22.08
2022-08-21T05:41:40.851Z,21.76
2022-08-21T05:44:10.503Z,22.12
2022-08-21T05:46:39.299Z,22.33
2022-08-21T05:49:06.802Z,22.50
2022-08-21T05:51:34.531Z,22.24
2022-08-21T05:54:02.011Z,21.73
2022-08-21T05:56:29.540Z,21.15
2022-08-21T05:58:57.297Z,21.66
2022-08-21T06:01:25.547Z,22.01
2022-08-21T06:03:53.442Z,22.01
2022-08-21T06:06:24.702Z,22.18
2022-08-21T06:08:53.695Z,22.73
2022-08-21T06:11:24.682Z,22.56
2022-08-21T06:13:56.360Z,22.08
2022-08-21T06:16:24.334Z,22.28
2022-08-21T06:18:51.842Z,22.89
2022-08-21T06:21:19.582Z,22.33
2022-08-21T06:23:47.353Z,22.16
2022-08-21T06:26:15.473Z,22.33
2022-08-21T06:28:43.467Z,22.72
2022-08-21T06:31:13.552Z,22.63
2022-08-21T06:33:41.066Z,21.91
2022-08-21T06:36:08.840Z,22.23
2022-08-21T06:38:37.416Z,22.36
2022-08-21T06:41:07.448Z,22.32
2022-08-21T06:43:39.678Z,22.38
2022-08-21T06:46:08.815Z,22.54
2022-08-21T06:48:36.527Z,22.28
2022-08-21T06:51:04.009Z,22.15
2022-08-21T06:53:31.733Z,22.38
2022-08-21T06:55:59.277Z,22.30
2022-08-21T06:58:26.783Z,22.49
2022-08-21T07:00:57.641Z,22.28
2022-08-21T07:03:33.532Z,22.18
2022-08-21T07:06:01.356Z,22.15
2022-08-21T07:08:29.712Z,22.07
2022-08-21T07:10:58.597Z,22.07
2022-08-21T07:13:26.973Z,22.07
2022-08-21T07:15:54.533Z,22.17
2022-08-21T07:18:22.303Z,22.40
2022-08-21T07:20:50.137Z,22.60
2022-08-21T07:23:33.966Z,22.20
2022-08-21T07:26:02.254Z,22.70
2022-08-21T07:28:30.264Z,22.49
2022-08-21T07:30:59.865Z,22.79
2022-08-21T07:33:29.440Z,23.00
2022-08-21T07:35:57.135Z,23.12
2022-08-21T07:38:25.184Z,23.25
2022-08-21T07:40:55.569Z,23.08
2022-08-21T07:43:23.556Z,23.14
2022-08-21T07:45:51.028Z,22.78
2022-08-21T07:48:18.863Z,23.48
2022-08-21T07:50:46.538Z,23.07
2022-08-21T07:53:14.037Z,23.35
2022-08-21T07:55:41.752Z,23.63
2022-08-21T07:58:09.257Z,23.31
2022-08-21T08:00:36.983Z,23.59
2022-08-21T08:03:04.835Z,23.80
2022-08-21T08:05:33.433Z,23.73
2022-08-21T08:08:00.881Z,23.90
2022-08-21T08:10:28.946Z,23.51
2022-08-21T08:12:56.697Z,23.88
2022-08-21T08:15:26.503Z,23.80
2022-08-21T08:17:55.883Z,23.51
2022-08-21T08:20:24.625Z,24.24
2022-08-21T08:22:52.282Z,23.76
2022-08-21T08:25:21.423Z,23.94
2022-08-21T08:27:48.970Z,24.07
2022-08-21T08:30:19.211Z,24.41
2022-08-21T08:32:48.246Z,24.14
2022-08-21T08:35:16.356Z,23.70
2022-08-21T08:37:46.713Z,23.97
2022-08-21T08:40:45.415Z,23.59
2022-08-21T08:43:14.523Z,24.32
2022-08-21T08:45:47.494Z,24.34
2022-08-21T08:48:43.197Z,23.82
2022-08-21T08:51:18.194Z,24.39
2022-08-21T08:53:51.603Z,24.36
2022-08-21T08:56:23.806Z,24.02
2022-08-21T08:58:52.584Z,24.16
2022-08-21T09:01:21.280Z,24.14
2022-08-21T09:03:51.124Z,24.12
2022-08-21T09:06:46.618Z,24.63
2022-08-21T09:09:23.344Z,24.34
2022-08-21T09:11:57.426Z,24.14
2022-08-21T09:14:31.567Z,24.54
2022-08-21T09:17:33.420Z,24.57
2022-08-21T09:20:05.013Z,24.61
2022-08-21T09:22:50.692Z,25.07
2022-08-21T09:25:25.894Z,24.52
2022-08-21T09:27:54.059Z,24.45
2022-08-21T09:30:33.205Z,24.61
2022-08-21T09:33:01.196Z,24.64
2022-08-21T09:35:29.204Z,24.72
2022-08-21T09:38:07.481Z,24.85
2022-08-21T09:40:44.469Z,24.82
2022-08-21T09:43:11.857Z,24.74
2022-08-21T09:45:42.843Z,25.39
2022-08-21T09:48:22.523Z,25.89
2022-08-21T09:50:55.108Z,25.45
2022-08-21T09:53:30.579Z,25.53
2022-08-21T09:56:24.245Z,25.28
2022-08-21T09:58:52.977Z,25.36
2022-08-21T10:01:23.490Z,25.31
2022-08-21T10:04:10.929Z,25.89
2022-08-21T10:06:38.821Z,25.52
2022-08-21T10:09:18.743Z,25.82
2022-08-21T10:11:58.744Z,26.39
2022-08-21T10:14:45.879Z,25.86
2022-08-21T10:17:41.989Z,26.06
2022-08-21T10:20:26.962Z,25.89
2022-08-21T10:23:25.297Z,26.31
2022-08-21T10:26:13.205Z,27.03
2022-08-21T10:28:53.791Z,26.70
2022-08-21T10:31:31.025Z,26.91
2022-08-21T10:34:18.666Z,26.88
2022-08-21T10:37:12.373Z,26.67
2022-08-21T10:40:05.045Z,26.81
2022-08-21T10:42:34.672Z,26.96
2022-08-21T10:45:09.789Z,26.51
2022-08-21T10:47:43.040Z,26.79
2022-08-21T10:50:15.698Z,27.25
2022-08-21T10:53:05.169Z,26.91
2022-08-21T10:55:36.734Z,27.39
2022-08-21T10:58:14.149Z,27.21
2022-08-21T11:00:46.982Z,27.40
2022-08-21T11:03:19.214Z,26.98
2022-08-21T11:05:53.946Z,27.22
2022-08-21T11:08:31.775Z,27.73
2022-08-21T11:11:10.278Z,27.41
2022-08-21T11:13:45.582Z,27.67
2022-08-21T11:16:20.792Z,27.31
2022-08-21T11:18:53.685Z,27.14
2022-08-21T11:21:44.174Z,27.19
2022-08-21T11:24:37.775Z,26.86
2022-08-21T11:27:22.624Z,27.30
2022-08-21T11:29:58.385Z,26.82
2022-08-21T11:32:39.067Z,26.85
2022-08-21T11:35:16.405Z,26.41
2022-08-21T11:37:55.731Z,26.81
2022-08-21T11:41:19.297Z,26.85
2022-08-21T11:43:57.039Z,26.75
2022-08-21T11:46:40.063Z,26.81
2022-08-21T11:49:20.844Z,26.91
2022-08-21T11:51:56.935Z,25.90
2022-08-21T11:54:26.926Z,26.09
2022-08-21T11:57:05.127Z,26.25
2022-08-21T11:59:44.544Z,26.27
2022-08-21T12:02:19.195Z,25.96
2022-08-21T12:04:57.925Z,26.17
2022-08-21T12:07:31.860Z,25.87
2022-08-21T12:10:00.378Z,26.22
2022-08-21T12:12:39.186Z,25.60
2022-08-21T12:15:22.202Z,25.67
2022-08-21T12:17:54.840Z,26.23
2022-08-21T12:20:22.734Z,26.01
2022-08-21T12:23:03.584Z,25.88
2022-08-21T12:25:39.786Z,26.03
2022-08-21T12:28:13.030Z,26.17
2022-08-21T12:30:50.157Z,26.00
2022-08-21T12:33:37.459Z,26.47
2022-08-21T12:36:10.785Z,26.53
2022-08-21T12:38:50.012Z,25.94
2022-08-21T12:41:23.465Z,25.29
2022-08-21T12:44:05.206Z,25.67
2022-08-21T12:46:40.457Z,25.65
2022-08-21T12:49:16.262Z,26.20
2022-08-21T12:51:52.162Z,26.05
2022-08-21T12:54:30.782Z,25.69
2022-08-21T12:57:01.630Z,25.95
2022-08-21T12:59:30.531Z,25.41
2022-08-21T13:02:01.653Z,25.42
2022-08-21T13:04:39.867Z,25.18
2022-08-21T13:07:11.924Z,25.11
2022-08-21T13:09:45.734Z,24.88
2022-08-21T13:12:15.384Z,25.09
2022-08-21T13:14:46.180Z,24.92
2022-08-21T13:17:25.954Z,25.32
2022-08-21T13:20:03.941Z,25.01
2022-08-21T13:22:33.839Z,24.91
2022-08-21T13:25:07.091Z,25.06
2022-08-21T13:27:35.436Z,25.46
2022-08-21T13:30:11.029Z,25.04
2022-08-21T13:32:44.783Z,24.55
2022-08-21T13:35:22.012Z,24.86
2022-08-21T13:37:52.146Z,24.36
2022-08-21T13:40:46.182Z,24.85
2022-08-21T13:43:20.943Z,24.61
2022-08-21T13:45:50.289Z,24.71
2022-08-21T13:48:19.677Z,24.72
2022-08-21T13:50:47.752Z,25.01
2022-08-21T13:53:45.906Z,24.94
2022-08-21T13:56:44.098Z,24.76
2022-08-21T13:59:11.708Z,25.03
2022-08-21T14:01:44.228Z,25.19
2022-08-21T14:04:25.184Z,24.71
2022-08-21T14:06:53.374Z,24.84
2022-08-21T14:09:43.928Z,25.09
2022-08-21T14:12:23.589Z,25.06
2022-08-21T14:14:52.746Z,25.22
2022-08-21T14:17:36.350Z,24.40
2022-08-21T14:20:09.731Z,24.72
2022-08-21T14:22:42.922Z,24.77
2022-08-21T14:25:20.036Z,24.53
2022-08-21T14:27:53.235Z,24.74
2022-08-21T14:30:36.810Z,25.10
2022-08-21T14:33:10.130Z,25.03
2022-08-21T14:35:38.327Z,25.35
2022-08-21T14:38:14.630Z,25.09
2022-08-21T14:40:43.609Z,25.17
2022-08-21T14:43:11.162Z,24.90
2022-08-21T14:45:41.654Z,24.84
2022-08-21T14:48:09.557Z,25.16
2022-08-21T14:50:38.797Z,24.88
2022-08-21T14:53:10.904Z,24.93
2022-08-21T14:55:59.036Z,25.11
2022-08-21T14:58:26.879Z,24.76
2022-08-21T15:00:55.476Z,24.99
2022-08-21T15:03:23.268Z,25.25
2022-08-21T15:05:50.989Z,25.03
2022-08-21T15:08:19.360Z,24.50
2022-08-21T15:11:10.571Z,24.93
2022-08-21T15:13:35.593Z,24.75
2022-08-21T15:16:03.278Z,24.47
2022-08-21T15:18:31.273Z,24.56
2022-08-21T15:20:59.277Z,24.81
2022-08-21T15:23:27.329Z,24.86
2022-08-21T15:25:55.948Z,24.72
2022-08-21T15:28:23.889Z,24.74
2022-08-21T15:30:52.778Z,24.98
2022-08-21T15:33:20.609Z,24.97
2022-08-21T15:35:49.041Z,24.86
2022-08-21T15:38:17.076Z,24.74
2022-08-21T15:40:47.841Z,25.07
2022-08-21T15:43:30.184Z,24.99
2022-08-21T15:46:01.843Z,24.74
2022-08-21T15:48:29.870Z,24.60
2022-08-21T15:50:57.368Z,24.79
2022-08-21T15:53:24.845Z,24.61
2022-08-21T15:55:52.689Z,24.71
2022-08-21T15:58:22.801Z,24.72
2022-08-21T16:00:50.308Z,24.58
2022-08-21T16:03:20.740Z,24.73
2022-08-21T16:05:53.829Z,24.89
2022-08-21T16:08:21.942Z,24.36
2022-08-21T16:10:49.981Z,24.14
2022-08-21T16:13:23.467Z,24.33
2022-08-21T16:15:51.587Z,24.11
2022-08-21T16:18:19.796Z,24.39
2022-08-21T16:20:47.529Z,24.40
2022-08-21T16:23:15.442Z,24.59
2022-08-21T16:25:43.006Z,24.28
2022-08-21T16:28:17.436Z,24.72
2022-08-21T16:30:45.479Z,24.58
2022-08-21T16:33:32.380Z,24.68
2022-08-21T16:36:00.769Z,24.92
2022-08-21T16:38:29.434Z,24.62
2022-08-21T16:40:56.974Z,24.73
2022-08-21T16:43:26.527Z,24.64
2022-08-21T16:45:55.388Z,24.83
2022-08-21T16:48:23.872Z,24.41
2022-08-21T16:50:51.659Z,24.69
2022-08-21T16:53:19.139Z,24.71
2022-08-21T16:55:47.136Z,24.68
2022-08-21T16:58:18.725Z,24.50
2022-08-21T17:00:46.252Z,23.94
2022-08-21T17:03:17.039Z,24.38
2022-08-21T17:05:44.970Z,24.24
2022-08-21T17:08:12.589Z,24.36
2022-08-21T17:10:43.604Z,23.98
2022-08-21T17:13:12.397Z,24.34
2022-08-21T17:15:40.225Z,23.99
2022-08-21T17:18:16.587Z,23.62
2022-08-21T17:20:45.114Z,23.85
2022-08-21T17:23:13.844Z,23.79
2022-08-21T17:25:44.442Z,23.65
2022-08-21T17:28:24.408Z,23.70
2022-08-21T17:30:53.640Z,23.78
2022-08-21T17:33:21.536Z,23.78
2022-08-21T17:35:49.043Z,23.82
2022-08-21T17:38:16.810Z,23.78
2022-08-21T17:40:46.989Z,24.03
2022-08-21T17:43:15.293Z,23.89
2022-08-21T17:45:43.601Z,23.81
2022-08-21T17:48:11.745Z,24.05
2022-08-21T17:50:40.185Z,24.17
2022-08-21T17:53:07.978Z,24.06
2022-08-21T17:55:36.514Z,23.85
2022-08-21T17:58:04.294Z,24.14
2022-08-21T18:00:32.377Z,23.76
2022-08-21T18:03:07.611Z,24.15
2022-08-21T18:05:35.732Z,24.24
2022-08-21T18:08:03.709Z,24.38
2022-08-21T18:10:31.261Z,24.56
2022-08-21T18:13:00.311Z,24.54
2022-08-21T18:15:28.819Z,24.49
2022-08-21T18:17:56.333Z,24.15
2022-08-21T18:20:24.090Z,24.26
2022-08-21T18:22:52.196Z,24.39
2022-08-21T18:25:21.003Z,24.33
2022-08-21T18:27:49.732Z,24.39
2022-08-21T18:30:20.724Z,24.66
2022-08-21T18:32:50.539Z,23.97
2022-08-21T18:35:38.489Z,24.22
2022-08-21T18:38:27.546Z,24.30
2022-08-21T18:41:15.380Z,23.79
2022-08-21T18:44:03.670Z,23.91
2022-08-21T18:46:31.774Z,24.03
2022-08-21T18:49:19.517Z,24.21
2022-08-21T18:51:47.739Z,24.45
2022-08-21T18:54:15.703Z,24.25
2022-08-21T18:56:45.240Z,24.35
2022-08-21T18:59:15.060Z,24.30
2022-08-21T19:01:43.283Z,24.12
2022-08-21T19:04:30.135Z,24.14
2022-08-21T19:07:04.817Z,24.12
2022-08-21T19:09:35.765Z,24.14
2022-08-21T19:12:04.334Z,24.17
2022-08-21T19:14:33.329Z,23.93
2022-08-21T19:17:02.920Z,23.98
2022-08-21T19:19:32.917Z,23.69
2022-08-21T19:22:01.614Z,24.00
2022-08-21T19:24:33.132Z,24.00
2022-08-21T19:27:03.360Z,23.60
2022-08-21T19:29:34.556Z,23.55
2022-08-21T19:32:06.237Z,23.57
2022-08-21T19:34:36.360Z,23.49
2022-08-21T19:37:06.421Z,23.76
2022-08-21T19:39:42.361Z,23.38
2022-08-21T19:42:14.947Z,23.65
2022-08-21T19:44:43.872Z,23.47
2022-08-21T19:47:19.041Z,23.49
2022-08-21T19:49:51.259Z,23.21
2022-08-21T19:52:18.969Z,23.52
2022-08-21T19:54:46.771Z,23.46
2022-08-21T19:57:14.594Z,23.86
2022-08-21T19:59:42.848Z,23.91
2022-08-21T20:02:13.482Z,24.05
2022-08-21T20:04:53.435Z,23.89
2022-08-21T20:07:26.760Z,24.21
2022-08-21T20:10:10.594Z,23.90
2022-08-21T20:12:38.259Z,23.88
2022-08-21T20:15:07.672Z,23.78
2022-08-21T20:17:35.782Z,23.51
2022-08-21T20:20:04.868Z,23.74
2022-08-21T20:22:32.395Z,23.63
2022-08-21T20:25:00.405Z,23.87
2022-08-21T20:27:28.670Z,23.43
2022-08-21T20:29:56.538Z,23.11
2022-08-21T20:32:24.603Z,23.33
2022-08-21T20:34:53.933Z,23.45
2022-08-21T20:37:36.707Z,23.30
2022-08-21T20:42:59.431Z,22.73
2022-08-21T20:45:33.797Z,23.03
2022-08-21T20:48:04.833Z,23.10
2022-08-21T20:50:36.931Z,23.15
2022-08-21T20:53:18.609Z,23.02
2022-08-21T20:55:48.854Z,23.24
2022-08-21T20:58:34.588Z,22.85
2022-08-21T21:01:06.592Z,23.13
2022-08-21T21:03:37.444Z,23.29
2022-08-21T21:06:09.068Z,22.96
2022-08-21T21:08:50.961Z,23.21
2022-08-21T21:11:20.252Z,22.96
2022-08-21T21:13:53.500Z,23.18
2022-08-21T21:16:27.266Z,23.06
2022-08-21T21:19:04.692Z,23.22
2022-08-21T21:21:35.997Z,23.01
2022-08-21T21:24:10.474Z,22.71
2022-08-21T21:26:46.224Z,22.88
2022-08-21T21:29:29.851Z,22.89
2022-08-21T21:31:57.895Z,22.67
2022-08-21T21:34:28.007Z,22.82
2022-08-21T21:37:16.568Z,22.56
2022-08-21T21:40:01.975Z,22.48
2022-08-21T21:42:58.307Z,22.85
2022-08-21T21:45:35.784Z,22.33
2022-08-21T21:48:32.905Z,22.58
2022-08-21T21:51:15.769Z,22.45
2022-08-21T21:53:56.546Z,22.05
2022-08-21T21:56:59.902Z,22.43
2022-08-21T21:59:58.790Z,22.19
2022-08-21T22:05:12.720Z,22.05
2022-08-21T22:07:45.116Z,21.90
2022-08-21T22:10:32.491Z,21.96
2022-08-21T22:13:26.493Z,21.57
2022-08-21T22:15:55.638Z,21.72
2022-08-21T22:18:27.300Z,21.81
2022-08-21T22:21:03.442Z,21.62
2022-08-21T22:23:34.528Z,21.78
2022-08-21T22:26:08.740Z,21.25
2022-08-21T22:28:39.993Z,21.97
2022-08-21T22:31:27.821Z,21.70
2022-08-21T22:37:03.436Z,20.97
2022-08-21T22:39:44.039Z,21.62
2022-08-21T22:42:14.905Z,21.82
2022-08-21T22:44:53.926Z,21.31
2022-08-21T22:47:34.718Z,21.34
2022-08-21T22:50:06.492Z,21.52
2022-08-21T22:52:36.278Z,21.68
2022-08-21T22:55:32.319Z,21.58
2022-08-21T22:58:20.435Z,21.45
2022-08-21T23:01:06.202Z,20.92
2022-08-21T23:03:44.550Z,21.46
2022-08-21T23:06:46.521Z,21.90
2022-08-21T23:09:21.644Z,22.03
2022-08-21T23:14:37.209Z,21.73
2022-08-21T23:17:14.404Z,21.59
2022-08-21T23:20:10.037Z,21.58
2022-08-21T23:22:58.906Z,21.60
2022-08-21T23:25:53.029Z,21.79
2022-08-21T23:31:33.331Z,21.73
2022-08-21T23:34:10.570Z,21.58
2022-08-21T23:37:23.098Z,22.14
2022-08-21T23:40:13.862Z,22.14
2022-08-21T23:43:09.677Z,22.02
2022-08-21T23:45:58.492Z,22.11
2022-08-21T23:48:52.417Z,22.28
2022-08-21T23:51:46.040Z,22.39
2022-08-21T23:54:22.476Z,22.35
2022-08-21T23:57:02.645Z,22.47
2022-08-21T23:59:54.128Z,22.66
